sensor_id;sensor_type;location;lat;lon;timestamp;pressure;altitude;pressure_sealevel;temperature;humidity
46768;BME280;69007;48.978;18.066;2024-03-02T00:01:04;96872.69;;;10.76;100.00
46768;BME280;69007;48.978;18.066;2024-03-02T00:03:29;96851.03;;;10.60;100.00
46768;BME280;69007;48.978;18.066;2024-03-02T00:05:54;96860.53;;;10.63;100.00
46768;BME280;69007;48.978;18.066;2024-03-02T00:08:23;96874.63;;;10.70;100.00
46768;BME280;69007;48.978;18.066;2024-03-02T00:10:50;96869.47;;;10.68;100.00
46768;BME280;69007;48.978;18.066;2024-03-02T00:13:16;96873.59;;;10.61;100.00
46768;BME280;69007;48.978;18.066;2024-03-02T00:15:53;96881.47;;;10.62;100.00
46768;BME280;69007;48.978;18.066;2024-03-02T00:18:25;96882.31;;;10.63;100.00
46768;BME280;69007;48.978;18.066;2024-03-02T00:20:53;96870.63;;;10.57;100.00
46768;BME280;69007;48.978;18.066;2024-03-02T00:23:20;96844.09;;;10.44;100.00
46768;BME280;69007;48.978;18.066;2024-03-02T00:25:48;96867.69;;;10.54;100.00
46768;BME280;69007;48.978;18.066;2024-03-02T00:28:19;96868.25;;;10.50;100.00
46768;BME280;69007;48.978;18.066;2024-03-02T00:31:05;96848.47;;;10.40;100.00
46768;BME280;69007;48.978;18.066;2024-03-02T00:33:34;96868.19;;;10.56;100.00
46768;BME280;69007;48.978;18.066;2024-03-02T00:36:02;96844.66;;;10.41;100.00
46768;BME280;69007;48.978;18.066;2024-03-02T00:38:29;96841.59;;;10.47;100.00
46768;BME280;69007;48.978;18.066;2024-03-02T00:40:56;96871.19;;;10.59;100.00
46768;BME280;69007;48.978;18.066;2024-03-02T00:45:52;96853.84;;;10.50;100.00
46768;BME280;69007;48.978;18.066;2024-03-02T00:48:17;96869.00;;;10.61;100.00
46768;BME280;69007;48.978;18.066;2024-03-02T00:50:42;96856.47;;;10.60;100.00
46768;BME280;69007;48.978;18.066;2024-03-02T00:53:12;96860.53;;;10.63;100.00
46768;BME280;69007;48.978;18.066;2024-03-02T00:55:39;96852.94;;;10.60;100.00
46768;BME280;69007;48.978;18.066;2024-03-02T00:58:09;96841.28;;;10.54;100.00
46768;BME280;69007;48.978;18.066;2024-03-02T01:00:34;96855.63;;;10.65;100.00
46768;BME280;69007;48.978;18.066;2024-03-02T01:03:00;96833.16;;;10.49;100.00
46768;BME280;69007;48.978;18.066;2024-03-02T01:05:25;96828.28;;;10.46;100.00
46768;BME280;69007;48.978;18.066;2024-03-02T01:07:51;96833.47;;;10.42;100.00
46768;BME280;69007;48.978;18.066;2024-03-02T01:10:16;96853.78;;;10.55;100.00
46768;BME280;69007;48.978;18.066;2024-03-02T01:12:41;96846.19;;;10.52;100.00
46768;BME280;69007;48.978;18.066;2024-03-02T01:15:07;96841.09;;;10.45;100.00
46768;BME280;69007;48.978;18.066;2024-03-02T01:17:33;96841.66;;;10.42;100.00
46768;BME280;69007;48.978;18.066;2024-03-02T01:19:58;96841.72;;;10.27;100.00
46768;BME280;69007;48.978;18.066;2024-03-02T01:22:24;96831.22;;;10.15;100.00
46768;BME280;69007;48.978;18.066;2024-03-02T01:24:51;96847.16;;;10.27;100.00
46768;BME280;69007;48.978;18.066;2024-03-02T01:27:16;96833.09;;;10.14;100.00
46768;BME280;69007;48.978;18.066;2024-03-02T01:29:41;96820.63;;;10.13;100.00
46768;BME280;69007;48.978;18.066;2024-03-02T01:32:07;96851.22;;;10.29;100.00
46768;BME280;69007;48.978;18.066;2024-03-02T01:34:32;96824.47;;;10.07;100.00
46768;BME280;69007;48.978;18.066;2024-03-02T01:36:57;96838.22;;;10.21;100.00
46768;BME280;69007;48.978;18.066;2024-03-02T01:39:23;96840.13;;;10.21;100.00
46768;BME280;69007;48.978;18.066;2024-03-02T01:41:48;96823.63;;;10.12;100.00
46768;BME280;69007;48.978;18.066;2024-03-02T01:44:13;96827.91;;;10.23;100.00
46768;BME280;69007;48.978;18.066;2024-03-02T01:46:39;96826.53;;;10.21;100.00
46768;BME280;69007;48.978;18.066;2024-03-02T01:49:06;96830.94;;;10.17;100.00
46768;BME280;69007;48.978;18.066;2024-03-02T01:51:31;96829.59;;;10.14;100.00
46768;BME280;69007;48.978;18.066;2024-03-02T01:53:57;96832.06;;;10.10;100.00
46768;BME280;69007;48.978;18.066;2024-03-02T01:56:22;96821.47;;;10.09;100.00
46768;BME280;69007;48.978;18.066;2024-03-02T01:58:47;96810.63;;;10.04;100.00
46768;BME280;69007;48.978;18.066;2024-03-02T02:01:13;96817.94;;;10.08;100.00
46768;BME280;69007;48.978;18.066;2024-03-02T02:03:38;96813.91;;;10.01;100.00
46768;BME280;69007;48.978;18.066;2024-03-02T02:06:05;96823.13;;;10.05;100.00
46768;BME280;69007;48.978;18.066;2024-03-02T02:08:32;96795.19;;;9.94;100.00
46768;BME280;69007;48.978;18.066;2024-03-02T02:10:57;96820.69;;;10.03;100.00
46768;BME280;69007;48.978;18.066;2024-03-02T02:13:23;96797.72;;;9.85;100.00
46768;BME280;69007;48.978;18.066;2024-03-02T02:15:49;96821.25;;;10.00;100.00
46768;BME280;69007;48.978;18.066;2024-03-02T02:18:15;96792.31;;;9.80;100.00
46768;BME280;69007;48.978;18.066;2024-03-02T02:20:41;96821.84;;;9.92;100.00
46768;BME280;69007;48.978;18.066;2024-03-02T02:23:06;96790.19;;;9.72;100.00
46768;BME280;69007;48.978;18.066;2024-03-02T02:25:34;96765.03;;;9.51;100.00
46768;BME280;69007;48.978;18.066;2024-03-02T02:28:00;96812.69;;;9.77;100.00
46768;BME280;69007;48.978;18.066;2024-03-02T02:30:27;96815.69;;;9.76;100.00
46768;BME280;69007;48.978;18.066;2024-03-02T02:32:53;96799.22;;;9.57;100.00
46768;BME280;69007;48.978;18.066;2024-03-02T02:35:19;96793.78;;;9.52;100.00
46768;BME280;69007;48.978;18.066;2024-03-02T02:37:48;96786.53;;;9.42;100.00
46768;BME280;69007;48.978;18.066;2024-03-02T02:40:14;96787.88;;;9.39;100.00
46768;BME280;69007;48.978;18.066;2024-03-02T02:42:40;96786.31;;;9.28;100.00
46768;BME280;69007;48.978;18.066;2024-03-02T02:45:06;96806.38;;;9.32;100.00
46768;BME280;69007;48.978;18.066;2024-03-02T02:47:32;96805.88;;;9.20;100.00
46768;BME280;69007;48.978;18.066;2024-03-02T02:50:01;96782.63;;;8.93;100.00
46768;BME280;69007;48.978;18.066;2024-03-02T02:52:31;96813.50;;;9.13;100.00
46768;BME280;69007;48.978;18.066;2024-03-02T02:54:58;96807.25;;;9.12;100.00
46768;BME280;69007;48.978;18.066;2024-03-02T02:57:23;96803.44;;;9.13;100.00
46768;BME280;69007;48.978;18.066;2024-03-02T02:59:48;96783.38;;;9.04;100.00
46768;BME280;69007;48.978;18.066;2024-03-02T03:02:14;96778.25;;;9.02;100.00
46768;BME280;69007;48.978;18.066;2024-03-02T03:04:40;96782.63;;;8.93;100.00
46768;BME280;69007;48.978;18.066;2024-03-02T03:07:05;96791.00;;;9.02;100.00
46768;BME280;69007;48.978;18.066;2024-03-02T03:09:31;96783.13;;;9.00;100.00
46768;BME280;69007;48.978;18.066;2024-03-02T03:11:56;96789.69;;;8.94;100.00
46768;BME280;69007;48.978;18.066;2024-03-02T03:14:21;96817.84;;;9.09;100.00
46768;BME280;69007;48.978;18.066;2024-03-02T03:16:47;96809.97;;;9.07;100.00
46768;BME280;69007;48.978;18.066;2024-03-02T03:19:13;96801.31;;;9.05;100.00
46768;BME280;69007;48.978;18.066;2024-03-02T03:21:39;96787.25;;;8.88;100.00
46768;BME280;69007;48.978;18.066;2024-03-02T03:24:04;96792.66;;;8.82;100.00
46768;BME280;69007;48.978;18.066;2024-03-02T03:26:30;96796.97;;;8.99;100.00
46768;BME280;69007;48.978;18.066;2024-03-02T03:28:55;96816.78;;;9.10;100.00
46768;BME280;69007;48.978;18.066;2024-03-02T03:31:20;96788.84;;;8.99;100.00
46768;BME280;69007;48.978;18.066;2024-03-02T03:33:46;96816.75;;;9.15;100.00
46768;BME280;69007;48.978;18.066;2024-03-02T03:36:11;96821.88;;;9.21;100.00
46768;BME280;69007;48.978;18.066;2024-03-02T03:38:36;96811.88;;;9.12;100.00
46768;BME280;69007;48.978;18.066;2024-03-02T03:41:01;96792.94;;;8.96;100.00
46768;BME280;69007;48.978;18.066;2024-03-02T03:43:27;96815.13;;;9.14;100.00
46768;BME280;69007;48.978;18.066;2024-03-02T03:45:52;96819.47;;;9.10;100.00
46768;BME280;69007;48.978;18.066;2024-03-02T03:48:17;96796.44;;;8.97;100.00
46768;BME280;69007;48.978;18.066;2024-03-02T03:50:43;96819.75;;;9.08;100.00
46768;BME280;69007;48.978;18.066;2024-03-02T03:53:09;96811.91;;;9.01;100.00
46768;BME280;69007;48.978;18.066;2024-03-02T03:55:34;96813.00;;;8.90;100.00
46768;BME280;69007;48.978;18.066;2024-03-02T03:58:00;96794.06;;;8.75;100.00
46768;BME280;69007;48.978;18.066;2024-03-02T04:00:25;96809.75;;;8.88;100.00
46768;BME280;69007;48.978;18.066;2024-03-02T04:02:51;96766.41;;;8.62;100.00
46768;BME280;69007;48.978;18.066;2024-03-02T04:05:16;96794.56;;;8.87;100.00
46768;BME280;69007;48.978;18.066;2024-03-02T04:07:42;96814.09;;;8.99;100.00
46768;BME280;69007;48.978;18.066;2024-03-02T04:10:10;96810.25;;;9.06;100.00
46768;BME280;69007;48.978;18.066;2024-03-02T04:12:38;96783.16;;;8.95;100.00
46768;BME280;69007;48.978;18.066;2024-03-02T04:15:07;96820.56;;;9.03;100.00
46768;BME280;69007;48.978;18.066;2024-03-02T04:17:33;96823.34;;;8.67;100.00
46768;BME280;69007;48.978;18.066;2024-03-02T04:19:59;96787.00;;;8.33;100.00
46768;BME280;69007;48.978;18.066;2024-03-02T04:22:26;96820.06;;;8.35;100.00
46768;BME280;69007;48.978;18.066;2024-03-02T04:24:52;96815.50;;;8.30;100.00
46768;BME280;69007;48.978;18.066;2024-03-02T04:27:17;96782.66;;;8.21;100.00
46768;BME280;69007;48.978;18.066;2024-03-02T04:29:42;96825.56;;;8.45;100.00
46768;BME280;69007;48.978;18.066;2024-03-02T04:32:08;96815.22;;;8.52;100.00
46768;BME280;69007;48.978;18.066;2024-03-02T04:34:33;96817.94;;;8.57;100.00
46768;BME280;69007;48.978;18.066;2024-03-02T04:36:58;96809.81;;;8.47;100.00
46768;BME280;69007;48.978;18.066;2024-03-02T04:39:24;96825.28;;;8.52;100.00
46768;BME280;69007;48.978;18.066;2024-03-02T04:41:50;96826.34;;;8.56;100.00
46768;BME280;69007;48.978;18.066;2024-03-02T04:44:15;96812.50;;;8.62;100.00
46768;BME280;69007;48.978;18.066;2024-03-02T04:46:40;96820.66;;;8.57;100.00
46768;BME280;69007;48.978;18.066;2024-03-02T04:49:06;96818.47;;;8.49;100.00
46768;BME280;69007;48.978;18.066;2024-03-02T04:51:31;96809.28;;;8.50;100.00
46768;BME280;69007;48.978;18.066;2024-03-02T04:53:56;96812.00;;;8.50;100.00
46768;BME280;69007;48.978;18.066;2024-03-02T04:56:22;96805.47;;;8.51;100.00
46768;BME280;69007;48.978;18.066;2024-03-02T04:58:56;96814.97;;;8.54;100.00
46768;BME280;69007;48.978;18.066;2024-03-02T05:01:21;96796.25;;;8.37;100.00
46768;BME280;69007;48.978;18.066;2024-03-02T05:03:47;96801.94;;;8.40;100.00
46768;BME280;69007;48.978;18.066;2024-03-02T05:06:12;96832.56;;;8.56;100.00
46768;BME280;69007;48.978;18.066;2024-03-02T05:08:37;96831.22;;;8.64;100.00
46768;BME280;69007;48.978;18.066;2024-03-02T05:11:03;96821.19;;;8.59;100.00
46768;BME280;69007;48.978;18.066;2024-03-02T05:13:47;96814.16;;;8.48;100.00
46768;BME280;69007;48.978;18.066;2024-03-02T05:16:12;96840.16;;;8.59;100.00
46768;BME280;69007;48.978;18.066;2024-03-02T05:18:38;96812.53;;;8.47;100.00
46768;BME280;69007;48.978;18.066;2024-03-02T05:21:03;96835.56;;;8.60;100.00
46768;BME280;69007;48.978;18.066;2024-03-02T05:23:29;96827.44;;;8.60;100.00
46768;BME280;69007;48.978;18.066;2024-03-02T05:25:54;96825.53;;;8.55;100.00
46768;BME280;69007;48.978;18.066;2024-03-02T05:28:19;96777.25;;;8.37;100.00
46768;BME280;69007;48.978;18.066;2024-03-02T05:30:45;96811.44;;;8.53;100.00
46768;BME280;69007;48.978;18.066;2024-03-02T05:33:11;96832.84;;;8.70;100.00
46768;BME280;69007;48.978;18.066;2024-03-02T05:35:36;96809.53;;;8.54;100.00
46768;BME280;69007;48.978;18.066;2024-03-02T05:38:02;96803.03;;;8.55;100.00
46768;BME280;69007;48.978;18.066;2024-03-02T05:40:27;96814.16;;;8.53;100.00
46768;BME280;69007;48.978;18.066;2024-03-02T05:42:53;96812.50;;;8.57;100.00
46768;BME280;69007;48.978;18.066;2024-03-02T05:45:18;96815.75;;;8.59;100.00
46768;BME280;69007;48.978;18.066;2024-03-02T05:47:43;96824.47;;;8.61;100.00
46768;BME280;69007;48.978;18.066;2024-03-02T05:50:09;96847.50;;;8.79;100.00
46768;BME280;69007;48.978;18.066;2024-03-02T05:52:34;96862.94;;;8.79;100.00
46768;BME280;69007;48.978;18.066;2024-03-02T05:54:59;96848.31;;;8.70;100.00
46768;BME280;69007;48.978;18.066;2024-03-02T05:57:25;96859.69;;;8.56;100.00
46768;BME280;69007;48.978;18.066;2024-03-02T06:00:20;96850.94;;;7.92;100.00
46768;BME280;69007;48.978;18.066;2024-03-02T06:02:46;96867.72;;;8.00;100.00
46768;BME280;69007;48.978;18.066;2024-03-02T06:05:11;96863.41;;;8.04;100.00
46768;BME280;69007;48.978;18.066;2024-03-02T06:07:36;96888.09;;;8.07;100.00
46768;BME280;69007;48.978;18.066;2024-03-02T06:10:02;96875.66;;;8.22;100.00
46768;BME280;69007;48.978;18.066;2024-03-02T06:12:28;96856.38;;;8.13;100.00
46768;BME280;69007;48.978;18.066;2024-03-02T06:14:53;96881.63;;;8.39;100.00
46768;BME280;69007;48.978;18.066;2024-03-02T06:17:18;96887.63;;;8.46;100.00
46768;BME280;69007;48.978;18.066;2024-03-02T06:19:44;96887.91;;;8.50;100.00
46768;BME280;69007;48.978;18.066;2024-03-02T06:22:09;96884.41;;;8.55;100.00
46768;BME280;69007;48.978;18.066;2024-03-02T06:24:36;96884.66;;;8.63;100.00
46768;BME280;69007;48.978;18.066;2024-03-02T06:27:02;96891.72;;;8.80;100.00
46768;BME280;69007;48.978;18.066;2024-03-02T06:29:28;96889.53;;;8.87;100.00
46768;BME280;69007;48.978;18.066;2024-03-02T06:31:53;96881.09;;;8.94;100.00
46768;BME280;69007;48.978;18.066;2024-03-02T06:34:19;96860.22;;;8.84;100.00
46768;BME280;69007;48.978;18.066;2024-03-02T06:36:44;96872.16;;;8.98;100.00
46768;BME280;69007;48.978;18.066;2024-03-02T06:39:09;96890.03;;;9.20;100.00
46768;BME280;69007;48.978;18.066;2024-03-02T06:41:35;96876.19;;;9.11;100.00
46768;BME280;69007;48.978;18.066;2024-03-02T06:44:00;96898.97;;;9.36;100.00
46768;BME280;69007;48.978;18.066;2024-03-02T06:46:26;96905.44;;;9.40;100.00
46768;BME280;69007;48.978;18.066;2024-03-02T06:48:51;96927.44;;;9.44;100.00
46768;BME280;69007;48.978;18.066;2024-03-02T06:51:17;96906.56;;;9.39;100.00
46768;BME280;69007;48.978;18.066;2024-03-02T06:53:42;96921.16;;;9.53;100.00
46768;BME280;69007;48.978;18.066;2024-03-02T06:56:08;96891.34;;;9.38;100.00
46768;BME280;69007;48.978;18.066;2024-03-02T06:58:33;96905.69;;;9.54;100.00
46768;BME280;69007;48.978;18.066;2024-03-02T07:00:59;96892.13;;;9.54;100.00
46768;BME280;69007;48.978;18.066;2024-03-02T07:03:25;96906.47;;;9.65;100.00
46768;BME280;69007;48.978;18.066;2024-03-02T07:05:51;96928.41;;;9.84;100.00
46768;BME280;69007;48.978;18.066;2024-03-02T07:08:16;96925.44;;;9.75;100.00
46768;BME280;69007;48.978;18.066;2024-03-02T07:10:42;96911.09;;;9.64;100.00
46768;BME280;69007;48.978;18.066;2024-03-02T07:13:07;96935.00;;;9.67;100.00
46768;BME280;69007;48.978;18.066;2024-03-02T07:15:32;96898.13;;;9.46;100.00
46768;BME280;69007;48.978;18.066;2024-03-02T07:18:19;96903.78;;;9.54;100.00
46768;BME280;69007;48.978;18.066;2024-03-02T07:20:45;96934.44;;;9.70;100.00
46768;BME280;69007;48.978;18.066;2024-03-02T07:23:10;96929.56;;;9.62;100.00
46768;BME280;69007;48.978;18.066;2024-03-02T07:25:36;96944.22;;;9.61;100.00
46768;BME280;69007;48.978;18.066;2024-03-02T07:28:01;96943.69;;;9.64;100.00
46768;BME280;69007;48.978;18.066;2024-03-02T07:30:26;96906.78;;;9.48;100.00
46768;BME280;69007;48.978;18.066;2024-03-02T07:32:52;96921.44;;;9.57;100.00
46768;BME280;69007;48.978;18.066;2024-03-02T07:35:17;96943.44;;;9.61;100.00
46768;BME280;69007;48.978;18.066;2024-03-02T07:37:43;96931.25;;;9.48;100.00
46768;BME280;69007;48.978;18.066;2024-03-02T07:40:09;96927.16;;;9.40;100.00
46768;BME280;69007;48.978;18.066;2024-03-02T07:42:39;96944.25;;;9.51;100.00
46768;BME280;69007;48.978;18.066;2024-03-02T07:45:06;96954.03;;;9.62;100.00
46768;BME280;69007;48.978;18.066;2024-03-02T07:47:33;96952.63;;;9.70;100.00
46768;BME280;69007;48.978;18.066;2024-03-02T07:49:59;96948.03;;;9.70;100.00
46768;BME280;69007;48.978;18.066;2024-03-02T07:52:24;96939.84;;;9.75;100.00
46768;BME280;69007;48.978;18.066;2024-03-02T07:54:50;96941.72;;;9.75;100.00
46768;BME280;69007;48.978;18.066;2024-03-02T07:57:16;96961.25;;;9.92;100.00
46768;BME280;69007;48.978;18.066;2024-03-02T07:59:42;96941.72;;;9.85;100.00
46768;BME280;69007;48.978;18.066;2024-03-02T08:02:08;96958.25;;;9.94;100.00
46768;BME280;69007;48.978;18.066;2024-03-02T08:04:34;96962.84;;;10.04;100.00
46768;BME280;69007;48.978;18.066;2024-03-02T08:06:59;96976.19;;;10.00;100.00
46768;BME280;69007;48.978;18.066;2024-03-02T08:09:25;96944.94;;;9.92;100.00
46768;BME280;69007;48.978;18.066;2024-03-02T08:11:51;96975.34;;;10.10;100.00
46768;BME280;69007;48.978;18.066;2024-03-02T08:14:16;96969.59;;;10.06;100.00
46768;BME280;69007;48.978;18.066;2024-03-02T08:16:42;96972.31;;;10.06;100.00
46768;BME280;69007;48.978;18.066;2024-03-02T08:19:07;96958.47;;;10.08;100.00
46768;BME280;69007;48.978;18.066;2024-03-02T08:21:34;96960.91;;;10.09;100.00
46768;BME280;69007;48.978;18.066;2024-03-02T08:24:01;96966.38;;;10.04;100.00
46768;BME280;69007;48.978;18.066;2024-03-02T08:26:27;96955.78;;;10.03;100.00
46768;BME280;69007;48.978;18.066;2024-03-02T08:28:55;96972.06;;;10.13;100.00
46768;BME280;69007;48.978;18.066;2024-03-02T08:31:20;96971.19;;;10.18;100.00
46768;BME280;69007;48.978;18.066;2024-03-02T08:33:46;96933.28;;;9.92;100.00
46768;BME280;69007;48.978;18.066;2024-03-02T08:36:11;96974.47;;;10.20;100.00
46768;BME280;69007;48.978;18.066;2024-03-02T08:38:37;96964.38;;;10.25;100.00
46768;BME280;69007;48.978;18.066;2024-03-02T08:41:02;96950.31;;;10.13;100.00
46768;BME280;69007;48.978;18.066;2024-03-02T08:43:28;96963.84;;;10.23;100.00
46768;BME280;69007;48.978;18.066;2024-03-02T08:45:54;96980.66;;;10.36;100.00
46768;BME280;69007;48.978;18.066;2024-03-02T08:48:19;96977.69;;;10.32;100.00
46768;BME280;69007;48.978;18.066;2024-03-02T08:50:46;96950.56;;;10.17;100.00
46768;BME280;69007;48.978;18.066;2024-03-02T08:53:11;96973.88;;;10.28;100.00
46768;BME280;69007;48.978;18.066;2024-03-02T08:55:37;96959.25;;;10.19;100.00
46768;BME280;69007;48.978;18.066;2024-03-02T08:58:02;96985.81;;;10.37;100.00
46768;BME280;69007;48.978;18.066;2024-03-02T09:00:28;96989.88;;;10.45;100.00
46768;BME280;69007;48.978;18.066;2024-03-02T09:02:54;96980.00;;;10.54;100.00
46768;BME280;69007;48.978;18.066;2024-03-02T09:05:19;96959.72;;;10.41;100.00
46768;BME280;69007;48.978;18.066;2024-03-02T09:07:45;96978.09;;;10.60;100.00
46768;BME280;69007;48.978;18.066;2024-03-02T09:10:10;96927.34;;;10.40;100.00
46768;BME280;69007;48.978;18.066;2024-03-02T09:12:37;96976.63;;;10.78;100.00
46768;BME280;69007;48.978;18.066;2024-03-02T09:15:03;96950.84;;;10.65;100.00
46768;BME280;69007;48.978;18.066;2024-03-02T09:17:29;96946.22;;;10.65;100.00
46768;BME280;69007;48.978;18.066;2024-03-02T09:19:55;96958.56;;;10.53;100.00
46768;BME280;69007;48.978;18.066;2024-03-02T09:22:20;96952.38;;;10.37;100.00
46768;BME280;69007;48.978;18.066;2024-03-02T09:24:46;96961.88;;;10.44;100.00
46768;BME280;69007;48.978;18.066;2024-03-02T09:27:11;96981.38;;;10.57;100.00
46768;BME280;69007;48.978;18.066;2024-03-02T09:29:37;96992.00;;;10.53;100.00
46768;BME280;69007;48.978;18.066;2024-03-02T09:32:04;96955.34;;;10.40;100.00
46768;BME280;69007;48.978;18.066;2024-03-02T09:34:31;96997.16;;;10.55;100.00
46768;BME280;69007;48.978;18.066;2024-03-02T09:36:57;96993.31;;;10.61;100.00
46768;BME280;69007;48.978;18.066;2024-03-02T09:39:22;96984.41;;;10.50;100.00
46768;BME280;69007;48.978;18.066;2024-03-02T09:41:48;96998.56;;;10.47;100.00
46768;BME280;69007;48.978;18.066;2024-03-02T09:44:14;96984.97;;;10.47;100.00
46768;BME280;69007;48.978;18.066;2024-03-02T09:46:39;96993.47;;;10.35;100.00
46768;BME280;69007;48.978;18.066;2024-03-02T09:49:05;96961.91;;;10.34;100.00
46768;BME280;69007;48.978;18.066;2024-03-02T09:51:31;97000.97;;;10.54;100.00
46768;BME280;69007;48.978;18.066;2024-03-02T09:53:57;96995.53;;;10.54;100.00
46768;BME280;69007;48.978;18.066;2024-03-02T09:56:22;97007.78;;;10.56;100.00
46768;BME280;69007;48.978;18.066;2024-03-02T09:58:48;96992.22;;;10.62;100.00
46768;BME280;69007;48.978;18.066;2024-03-02T10:01:13;96983.28;;;10.56;100.00
46768;BME280;69007;48.978;18.066;2024-03-02T10:03:39;96987.56;;;10.67;100.00
46768;BME280;69007;48.978;18.066;2024-03-02T10:06:21;96989.44;;;10.72;100.00
46768;BME280;69007;48.978;18.066;2024-03-02T10:08:47;96986.72;;;10.72;100.00
46768;BME280;69007;48.978;18.066;2024-03-02T10:14:13;96985.41;;;10.64;100.00
46768;BME280;69007;48.978;18.066;2024-03-02T10:16:42;96991.63;;;10.70;100.00
46768;BME280;69007;48.978;18.066;2024-03-02T10:19:21;96986.44;;;10.74;100.00
46768;BME280;69007;48.978;18.066;2024-03-02T10:21:51;96987.50;;;10.78;100.00
46768;BME280;69007;48.978;18.066;2024-03-02T10:24:22;96959.53;;;10.67;100.00
46768;BME280;69007;48.978;18.066;2024-03-02T10:26:48;96964.94;;;10.72;100.00
46768;BME280;69007;48.978;18.066;2024-03-02T10:29:14;96977.91;;;10.85;100.00
46768;BME280;69007;48.978;18.066;2024-03-02T10:31:40;96998.50;;;10.97;100.00
46768;BME280;69007;48.978;18.066;2024-03-02T10:34:07;96982.13;;;11.07;100.00
46768;BME280;69007;48.978;18.066;2024-03-02T10:36:34;96962.38;;;10.91;100.00
46768;BME280;69007;48.978;18.066;2024-03-02T10:39:06;96983.03;;;10.92;100.00
46768;BME280;69007;48.978;18.066;2024-03-02T10:41:36;96959.19;;;10.79;100.00
46768;BME280;69007;48.978;18.066;2024-03-02T10:44:03;96987.09;;;10.95;100.00
46768;BME280;69007;48.978;18.066;2024-03-02T10:46:30;96985.00;;;10.86;100.00
46768;BME280;69007;48.978;18.066;2024-03-02T10:48:59;96987.78;;;10.76;100.00
46768;BME280;69007;48.978;18.066;2024-03-02T10:51:26;96960.44;;;10.52;100.00
46768;BME280;69007;48.978;18.066;2024-03-02T10:53:54;96988.94;;;10.65;100.00
46768;BME280;69007;48.978;18.066;2024-03-02T10:56:39;96984.75;;;10.83;100.00
46768;BME280;69007;48.978;18.066;2024-03-02T11:01:47;96967.09;;;10.75;100.00
46768;BME280;69007;48.978;18.066;2024-03-02T11:04:16;96988.66;;;11.06;100.00
46768;BME280;69007;48.978;18.066;2024-03-02T11:06:49;96957.63;;;11.02;100.00
46768;BME280;69007;48.978;18.066;2024-03-02T11:09:18;96981.56;;;11.05;100.00
46768;BME280;69007;48.978;18.066;2024-03-02T11:11:45;96994.22;;;10.91;100.00
46768;BME280;69007;48.978;18.066;2024-03-02T11:14:16;96988.28;;;10.83;100.00
46768;BME280;69007;48.978;18.066;2024-03-02T11:16:42;96974.09;;;10.86;100.00
46768;BME280;69007;48.978;18.066;2024-03-02T11:19:11;96956.63;;;10.93;100.00
46768;BME280;69007;48.978;18.066;2024-03-02T11:21:37;96987.25;;;11.14;100.00
46768;BME280;69007;48.978;18.066;2024-03-02T11:26:47;96978.13;;;10.94;100.00
46768;BME280;69007;48.978;18.066;2024-03-02T11:32:22;96984.84;;;11.07;100.00
46768;BME280;69007;48.978;18.066;2024-03-02T11:34:51;96979.22;;;10.93;100.00
46768;BME280;69007;48.978;18.066;2024-03-02T11:37:18;96974.25;;;11.00;100.00
46768;BME280;69007;48.978;18.066;2024-03-02T11:39:46;96980.44;;;11.11;100.00
46768;BME280;69007;48.978;18.066;2024-03-02T11:42:12;96950.69;;;10.91;100.00
46768;BME280;69007;48.978;18.066;2024-03-02T11:44:50;96963.31;;;11.11;100.00
46768;BME280;69007;48.978;18.066;2024-03-02T11:47:16;96955.53;;;10.94;100.00
46768;BME280;69007;48.978;18.066;2024-03-02T11:49:50;96972.88;;;11.03;100.00
46768;BME280;69007;48.978;18.066;2024-03-02T11:52:20;96970.94;;;11.09;100.00
46768;BME280;69007;48.978;18.066;2024-03-02T11:54:46;96972.59;;;11.04;100.00
46768;BME280;69007;48.978;18.066;2024-03-02T11:57:17;96976.28;;;10.84;100.00
46768;BME280;69007;48.978;18.066;2024-03-02T11:59:43;96971.97;;;10.78;100.00
46768;BME280;69007;48.978;18.066;2024-03-02T12:02:16;96950.03;;;10.64;100.00
46768;BME280;69007;48.978;18.066;2024-03-02T12:04:43;96970.06;;;10.84;100.00
46768;BME280;69007;48.978;18.066;2024-03-02T12:07:10;96954.94;;;10.67;100.00
46768;BME280;69007;48.978;18.066;2024-03-02T12:09:37;96956.81;;;10.67;100.00
46768;BME280;69007;48.978;18.066;2024-03-02T12:12:07;96972.00;;;10.73;100.00
46768;BME280;69007;48.978;18.066;2024-03-02T12:14:34;96965.50;;;10.74;100.00
46768;BME280;69007;48.978;18.066;2024-03-02T12:17:01;96927.53;;;10.54;100.00
46768;BME280;69007;48.978;18.066;2024-03-02T12:19:27;96941.00;;;10.69;100.00
46768;BME280;69007;48.978;18.066;2024-03-02T12:21:59;96956.91;;;10.91;100.00
46768;BME280;69007;48.978;18.066;2024-03-02T12:24:27;96936.31;;;10.80;100.00
46768;BME280;69007;48.978;18.066;2024-03-02T12:26:53;96966.13;;;10.95;100.00
46768;BME280;69007;48.978;18.066;2024-03-02T12:29:20;96967.25;;;10.94;100.00
46768;BME280;69007;48.978;18.066;2024-03-02T12:31:51;96941.44;;;10.86;100.00
46768;BME280;69007;48.978;18.066;2024-03-02T12:34:21;96939.75;;;10.96;100.00
46768;BME280;69007;48.978;18.066;2024-03-02T12:36:46;96953.53;;;11.04;100.00
46768;BME280;69007;48.978;18.066;2024-03-02T12:39:18;96937.59;;;10.93;100.00
46768;BME280;69007;48.978;18.066;2024-03-02T12:41:45;96968.00;;;11.00;100.00
46768;BME280;69007;48.978;18.066;2024-03-02T12:44:11;96934.44;;;10.75;100.00
46768;BME280;69007;48.978;18.066;2024-03-02T12:46:37;96959.66;;;10.91;100.00
46768;BME280;69007;48.978;18.066;2024-03-02T12:49:13;96964.25;;;10.96;100.00
46768;BME280;69007;48.978;18.066;2024-03-02T12:51:41;96967.78;;;10.96;100.00
46768;BME280;69007;48.978;18.066;2024-03-02T12:54:08;96945.72;;;10.98;100.00
46768;BME280;69007;48.978;18.066;2024-03-02T12:56:35;96931.63;;;10.85;100.00